sensor_id;sensor_type;location;lat;lon;timestamp;P1;durP1;ratioP1;P2;durP2;ratioP2
75620;SDS011;64574;48.506;-2.750;2023-05-10T00:01:58;15.90;;;2.20;;
75620;SDS011;64574;48.506;-2.750;2023-05-10T00:04:23;12.65;;;1.90;;
75620;SDS011;64574;48.506;-2.750;2023-05-10T00:06:52;10.95;;;1.60;;
75620;SDS011;64574;48.506;-2.750;2023-05-10T00:09:18;11.95;;;2.35;;
75620;SDS011;64574;48.506;-2.750;2023-05-10T00:11:43;16.27;;;2.53;;
75620;SDS011;64574;48.506;-2.750;2023-05-10T00:14:09;17.65;;;2.10;;
75620;SDS011;64574;48.506;-2.750;2023-05-10T00:16:35;11.93;;;1.75;;
75620;SDS011;64574;48.506;-2.750;2023-05-10T00:19:00;13.98;;;1.70;;
75620;SDS011;64574;48.506;-2.750;2023-05-10T00:21:26;11.52;;;2.05;;
75620;SDS011;64574;48.506;-2.750;2023-05-10T00:23:53;11.60;;;2.22;;
75620;SDS011;64574;48.506;-2.750;2023-05-10T00:26:19;8.20;;;1.25;;
75620;SDS011;64574;48.506;-2.750;2023-05-10T00:28:44;15.13;;;2.40;;
75620;SDS011;64574;48.506;-2.750;2023-05-10T00:31:10;14.65;;;1.75;;
75620;SDS011;64574;48.506;-2.750;2023-05-10T00:33:36;12.23;;;1.98;;
75620;SDS011;64574;48.506;-2.750;2023-05-10T00:36:01;10.68;;;1.80;;
75620;SDS011;64574;48.506;-2.750;2023-05-10T00:38:27;12.27;;;2.30;;
75620;SDS011;64574;48.506;-2.750;2023-05-10T00:40:52;16.27;;;2.10;;
75620;SDS011;64574;48.506;-2.750;2023-05-10T00:43:18;17.40;;;2.72;;
75620;SDS011;64574;48.506;-2.750;2023-05-10T00:45:44;18.77;;;2.78;;
75620;SDS011;64574;48.506;-2.750;2023-05-10T00:48:09;13.32;;;2.20;;
75620;SDS011;64574;48.506;-2.750;2023-05-10T00:50:35;12.65;;;2.33;;
75620;SDS011;64574;48.506;-2.750;2023-05-10T00:53:01;16.02;;;2.55;;
75620;SDS011;64574;48.506;-2.750;2023-05-10T00:55:27;14.90;;;2.40;;
75620;SDS011;64574;48.506;-2.750;2023-05-10T00:57:53;13.65;;;2.13;;
75620;SDS011;64574;48.506;-2.750;2023-05-10T01:00:19;14.23;;;2.22;;
75620;SDS011;64574;48.506;-2.750;2023-05-10T01:02:45;12.95;;;2.22;;
75620;SDS011;64574;48.506;-2.750;2023-05-10T01:05:11;14.65;;;2.20;;
75620;SDS011;64574;48.506;-2.750;2023-05-10T01:07:37;13.45;;;2.15;;
75620;SDS011;64574;48.506;-2.750;2023-05-10T01:10:04;12.70;;;2.08;;
75620;SDS011;64574;48.506;-2.750;2023-05-10T01:12:34;14.05;;;2.00;;
75620;SDS011;64574;48.506;-2.750;2023-05-10T01:15:05;17.77;;;2.17;;
75620;SDS011;64574;48.506;-2.750;2023-05-10T01:17:36;18.52;;;2.65;;
75620;SDS011;64574;48.506;-2.750;2023-05-10T01:20:04;17.77;;;2.40;;
75620;SDS011;64574;48.506;-2.750;2023-05-10T01:34:06;19.05;;;2.35;;
75620;SDS011;64574;48.506;-2.750;2023-05-10T01:42:10;13.93;;;1.85;;
75620;SDS011;64574;48.506;-2.750;2023-05-10T01:44:40;12.43;;;1.83;;
75620;SDS011;64574;48.506;-2.750;2023-05-10T01:47:29;17.23;;;2.30;;
75620;SDS011;64574;48.506;-2.750;2023-05-10T01:50:02;21.38;;;2.28;;
75620;SDS011;64574;48.506;-2.750;2023-05-10T01:52:33;18.77;;;2.47;;
75620;SDS011;64574;48.506;-2.750;2023-05-10T01:55:02;12.35;;;2.38;;
75620;SDS011;64574;48.506;-2.750;2023-05-10T01:57:37;11.95;;;2.35;;
75620;SDS011;64574;48.506;-2.750;2023-05-10T02:00:05;10.40;;;1.92;;
75620;SDS011;64574;48.506;-2.750;2023-05-10T02:02:39;12.80;;;2.25;;
75620;SDS011;64574;48.506;-2.750;2023-05-10T02:05:07;16.92;;;2.13;;
75620;SDS011;64574;48.506;-2.750;2023-05-10T02:07:34;13.32;;;2.00;;
75620;SDS011;64574;48.506;-2.750;2023-05-10T02:10:02;16.92;;;1.73;;
75620;SDS011;64574;48.506;-2.750;2023-05-10T02:12:29;11.23;;;1.92;;
75620;SDS011;64574;48.506;-2.750;2023-05-10T02:14:57;12.20;;;2.08;;
75620;SDS011;64574;48.506;-2.750;2023-05-10T02:17:26;15.70;;;2.10;;
75620;SDS011;64574;48.506;-2.750;2023-05-10T02:19:53;14.48;;;2.55;;
75620;SDS011;64574;48.506;-2.750;2023-05-10T02:22:21;13.38;;;2.30;;
75620;SDS011;64574;48.506;-2.750;2023-05-10T02:24:48;12.38;;;1.75;;
75620;SDS011;64574;48.506;-2.750;2023-05-10T02:27:15;9.63;;;2.30;;
75620;SDS011;64574;48.506;-2.750;2023-05-10T02:29:42;15.25;;;2.03;;
75620;SDS011;64574;48.506;-2.750;2023-05-10T02:32:09;11.30;;;1.70;;
75620;SDS011;64574;48.506;-2.750;2023-05-10T02:34:36;15.23;;;2.72;;
75620;SDS011;64574;48.506;-2.750;2023-05-10T02:37:01;16.60;;;2.40;;
75620;SDS011;64574;48.506;-2.750;2023-05-10T02:39:28;15.35;;;2.30;;
75620;SDS011;64574;48.506;-2.750;2023-05-10T02:41:56;10.07;;;1.95;;
75620;SDS011;64574;48.506;-2.750;2023-05-10T02:44:22;13.48;;;1.67;;
75620;SDS011;64574;48.506;-2.750;2023-05-10T02:46:50;12.30;;;2.40;;
75620;SDS011;64574;48.506;-2.750;2023-05-10T02:49:15;11.82;;;1.75;;
75620;SDS011;64574;48.506;-2.750;2023-05-10T02:51:43;12.25;;;1.75;;
75620;SDS011;64574;48.506;-2.750;2023-05-10T02:54:18;14.70;;;2.13;;
75620;SDS011;64574;48.506;-2.750;2023-05-10T02:56:53;16.88;;;1.80;;
75620;SDS011;64574;48.506;-2.750;2023-05-10T02:59:22;12.00;;;1.98;;
75620;SDS011;64574;48.506;-2.750;2023-05-10T03:01:48;10.68;;;1.83;;
75620;SDS011;64574;48.506;-2.750;2023-05-10T03:04:14;14.65;;;2.60;;
75620;SDS011;64574;48.506;-2.750;2023-05-10T03:06:40;16.90;;;2.40;;
75620;SDS011;64574;48.506;-2.750;2023-05-10T03:09:06;12.30;;;1.67;;
75620;SDS011;64574;48.506;-2.750;2023-05-10T03:11:37;13.93;;;1.90;;
75620;SDS011;64574;48.506;-2.750;2023-05-10T03:22:10;11.80;;;1.92;;
75620;SDS011;64574;48.506;-2.750;2023-05-10T03:24:38;12.05;;;1.88;;
75620;SDS011;64574;48.506;-2.750;2023-05-10T03:27:06;9.93;;;1.77;;
75620;SDS011;64574;48.506;-2.750;2023-05-10T03:29:33;13.70;;;2.10;;
75620;SDS011;64574;48.506;-2.750;2023-05-10T03:31:59;14.15;;;2.30;;
75620;SDS011;64574;48.506;-2.750;2023-05-10T03:34:25;11.40;;;1.73;;
75620;SDS011;64574;48.506;-2.750;2023-05-10T03:36:51;11.90;;;1.63;;
75620;SDS011;64574;48.506;-2.750;2023-05-10T03:39:17;11.93;;;1.85;;
75620;SDS011;64574;48.506;-2.750;2023-05-10T03:41:43;16.40;;;2.38;;
75620;SDS011;64574;48.506;-2.750;2023-05-10T03:44:08;10.70;;;2.03;;
75620;SDS011;64574;48.506;-2.750;2023-05-10T03:46:34;11.50;;;1.60;;
75620;SDS011;64574;48.506;-2.750;2023-05-10T03:48:59;7.97;;;1.50;;
75620;SDS011;64574;48.506;-2.750;2023-05-10T03:51:25;13.15;;;2.42;;
75620;SDS011;64574;48.506;-2.750;2023-05-10T03:53:53;14.52;;;1.75;;
75620;SDS011;64574;48.506;-2.750;2023-05-10T03:56:19;11.90;;;2.03;;
75620;SDS011;64574;48.506;-2.750;2023-05-10T03:58:46;14.38;;;1.88;;
75620;SDS011;64574;48.506;-2.750;2023-05-10T04:01:11;12.95;;;2.17;;
75620;SDS011;64574;48.506;-2.750;2023-05-10T04:03:37;7.28;;;1.38;;
75620;SDS011;64574;48.506;-2.750;2023-05-10T04:06:03;13.82;;;1.88;;
75620;SDS011;64574;48.506;-2.750;2023-05-10T04:08:29;11.63;;;2.38;;
75620;SDS011;64574;48.506;-2.750;2023-05-10T04:11:04;8.60;;;1.63;;
75620;SDS011;64574;48.506;-2.750;2023-05-10T04:13:33;11.57;;;2.03;;
75620;SDS011;64574;48.506;-2.750;2023-05-10T04:15:59;13.43;;;2.08;;
75620;SDS011;64574;48.506;-2.750;2023-05-10T04:18:24;14.80;;;2.85;;
75620;SDS011;64574;48.506;-2.750;2023-05-10T04:20:50;12.90;;;2.15;;
75620;SDS011;64574;48.506;-2.750;2023-05-10T04:23:16;11.82;;;1.60;;
75620;SDS011;64574;48.506;-2.750;2023-05-10T04:25:41;9.93;;;1.75;;
75620;SDS011;64574;48.506;-2.750;2023-05-10T04:28:07;11.52;;;1.88;;
75620;SDS011;64574;48.506;-2.750;2023-05-10T04:30:33;19.92;;;1.90;;
75620;SDS011;64574;48.506;-2.750;2023-05-10T04:32:59;15.95;;;2.65;;
75620;SDS011;64574;48.506;-2.750;2023-05-10T04:35:26;12.07;;;1.83;;
75620;SDS011;64574;48.506;-2.750;2023-05-10T04:37:53;11.90;;;2.10;;
75620;SDS011;64574;48.506;-2.750;2023-05-10T04:40:19;10.10;;;1.83;;
75620;SDS011;64574;48.506;-2.750;2023-05-10T04:42:45;13.27;;;1.90;;
75620;SDS011;64574;48.506;-2.750;2023-05-10T04:45:11;10.85;;;1.70;;
75620;SDS011;64574;48.506;-2.750;2023-05-10T04:47:37;13.70;;;2.15;;
75620;SDS011;64574;48.506;-2.750;2023-05-10T04:50:03;8.85;;;1.52;;
75620;SDS011;64574;48.506;-2.750;2023-05-10T04:52:29;9.23;;;1.80;;
75620;SDS011;64574;48.506;-2.750;2023-05-10T04:54:55;16.38;;;1.95;;
75620;SDS011;64574;48.506;-2.750;2023-05-10T04:57:21;10.02;;;1.42;;
75620;SDS011;64574;48.506;-2.750;2023-05-10T04:59:47;11.02;;;1.50;;
75620;SDS011;64574;48.506;-2.750;2023-05-10T05:02:13;16.42;;;2.28;;
75620;SDS011;64574;48.506;-2.750;2023-05-10T05:04:38;8.13;;;1.33;;
75620;SDS011;64574;48.506;-2.750;2023-05-10T05:07:04;8.30;;;1.80;;
75620;SDS011;64574;48.506;-2.750;2023-05-10T05:09:29;9.43;;;1.48;;
75620;SDS011;64574;48.506;-2.750;2023-05-10T05:11:57;8.45;;;1.65;;
75620;SDS011;64574;48.506;-2.750;2023-05-10T05:14:22;10.63;;;1.48;;
75620;SDS011;64574;48.506;-2.750;2023-05-10T05:19:16;9.45;;;1.48;;
75620;SDS011;64574;48.506;-2.750;2023-05-10T05:21:41;13.35;;;2.15;;
75620;SDS011;64574;48.506;-2.750;2023-05-10T05:24:07;14.50;;;2.05;;
75620;SDS011;64574;48.506;-2.750;2023-05-10T05:26:32;11.90;;;1.63;;
75620;SDS011;64574;48.506;-2.750;2023-05-10T05:28:58;12.38;;;2.28;;
75620;SDS011;64574;48.506;-2.750;2023-05-10T05:31:24;11.13;;;1.80;;
75620;SDS011;64574;48.506;-2.750;2023-05-10T05:33:49;14.93;;;2.17;;
75620;SDS011;64574;48.506;-2.750;2023-05-10T05:36:15;12.43;;;2.38;;
75620;SDS011;64574;48.506;-2.750;2023-05-10T05:38:41;7.32;;;2.08;;
75620;SDS011;64574;48.506;-2.750;2023-05-10T05:41:08;15.73;;;2.00;;
75620;SDS011;64574;48.506;-2.750;2023-05-10T05:43:33;10.18;;;1.90;;
75620;SDS011;64574;48.506;-2.750;2023-05-10T05:45:59;13.93;;;2.20;;
75620;SDS011;64574;48.506;-2.750;2023-05-10T05:48:24;14.77;;;2.33;;
75620;SDS011;64574;48.506;-2.750;2023-05-10T05:50:53;18.67;;;3.05;;
75620;SDS011;64574;48.506;-2.750;2023-05-10T05:53:20;8.55;;;2.13;;
75620;SDS011;64574;48.506;-2.750;2023-05-10T05:55:53;8.85;;;2.10;;
75620;SDS011;64574;48.506;-2.750;2023-05-10T05:58:20;13.50;;;2.30;;
75620;SDS011;64574;48.506;-2.750;2023-05-10T06:00:46;9.90;;;1.85;;
75620;SDS011;64574;48.506;-2.750;2023-05-10T06:03:11;11.88;;;2.38;;
75620;SDS011;64574;48.506;-2.750;2023-05-10T06:05:37;11.57;;;2.95;;
75620;SDS011;64574;48.506;-2.750;2023-05-10T06:08:03;14.45;;;3.15;;
75620;SDS011;64574;48.506;-2.750;2023-05-10T06:10:28;12.38;;;1.98;;
75620;SDS011;64574;48.506;-2.750;2023-05-10T06:12:55;12.25;;;1.52;;
75620;SDS011;64574;48.506;-2.750;2023-05-10T06:15:21;6.00;;;1.70;;
75620;SDS011;64574;48.506;-2.750;2023-05-10T06:17:46;9.40;;;1.40;;
75620;SDS011;64574;48.506;-2.750;2023-05-10T06:20:14;8.45;;;1.20;;
75620;SDS011;64574;48.506;-2.750;2023-05-10T06:22:40;5.90;;;1.60;;
75620;SDS011;64574;48.506;-2.750;2023-05-10T06:25:06;15.05;;;2.17;;
75620;SDS011;64574;48.506;-2.750;2023-05-10T06:27:32;11.10;;;1.92;;
75620;SDS011;64574;48.506;-2.750;2023-05-10T06:29:58;11.15;;;2.00;;
75620;SDS011;64574;48.506;-2.750;2023-05-10T06:32:24;12.65;;;1.90;;
75620;SDS011;64574;48.506;-2.750;2023-05-10T06:34:50;11.85;;;2.00;;
75620;SDS011;64574;48.506;-2.750;2023-05-10T06:37:15;12.18;;;2.45;;
75620;SDS011;64574;48.506;-2.750;2023-05-10T06:39:41;13.73;;;1.90;;
75620;SDS011;64574;48.506;-2.750;2023-05-10T06:42:07;10.48;;;1.88;;
75620;SDS011;64574;48.506;-2.750;2023-05-10T06:44:32;16.40;;;2.00;;
75620;SDS011;64574;48.506;-2.750;2023-05-10T06:46:58;9.57;;;1.80;;
75620;SDS011;64574;48.506;-2.750;2023-05-10T06:49:24;12.93;;;2.20;;
75620;SDS011;64574;48.506;-2.750;2023-05-10T06:51:49;10.75;;;1.77;;
75620;SDS011;64574;48.506;-2.750;2023-05-10T06:54:15;14.20;;;1.80;;
75620;SDS011;64574;48.506;-2.750;2023-05-10T06:56:40;11.13;;;1.73;;
75620;SDS011;64574;48.506;-2.750;2023-05-10T06:59:06;12.98;;;1.90;;
75620;SDS011;64574;48.506;-2.750;2023-05-10T07:01:32;10.98;;;1.50;;
75620;SDS011;64574;48.506;-2.750;2023-05-10T07:03:57;10.43;;;1.70;;
75620;SDS011;64574;48.506;-2.750;2023-05-10T07:06:23;15.25;;;1.85;;
75620;SDS011;64574;48.506;-2.750;2023-05-10T07:08:49;10.30;;;1.98;;
75620;SDS011;64574;48.506;-2.750;2023-05-10T07:11:14;11.43;;;1.50;;
75620;SDS011;64574;48.506;-2.750;2023-05-10T07:13:40;16.33;;;2.00;;
75620;SDS011;64574;48.506;-2.750;2023-05-10T07:16:08;9.48;;;1.63;;
75620;SDS011;64574;48.506;-2.750;2023-05-10T07:18:34;13.68;;;1.85;;
75620;SDS011;64574;48.506;-2.750;2023-05-10T07:21:00;14.18;;;1.60;;
75620;SDS011;64574;48.506;-2.750;2023-05-10T07:23:26;11.27;;;2.10;;
75620;SDS011;64574;48.506;-2.750;2023-05-10T07:25:52;15.43;;;2.40;;
75620;SDS011;64574;48.506;-2.750;2023-05-10T07:28:18;13.05;;;1.80;;
75620;SDS011;64574;48.506;-2.750;2023-05-10T07:30:44;11.07;;;1.65;;
75620;SDS011;64574;48.506;-2.750;2023-05-10T07:33:10;12.68;;;3.33;;
75620;SDS011;64574;48.506;-2.750;2023-05-10T07:35:37;15.38;;;1.90;;
75620;SDS011;64574;48.506;-2.750;2023-05-10T07:38:02;8.35;;;2.00;;
75620;SDS011;64574;48.506;-2.750;2023-05-10T07:40:28;13.75;;;2.03;;
75620;SDS011;64574;48.506;-2.750;2023-05-10T07:42:54;11.98;;;1.55;;
75620;SDS011;64574;48.506;-2.750;2023-05-10T07:45:20;9.77;;;1.70;;
75620;SDS011;64574;48.506;-2.750;2023-05-10T07:47:46;9.63;;;1.60;;
75620;SDS011;64574;48.506;-2.750;2023-05-10T07:50:12;9.88;;;1.40;;
75620;SDS011;64574;48.506;-2.750;2023-05-10T07:52:37;12.43;;;1.88;;
75620;SDS011;64574;48.506;-2.750;2023-05-10T07:55:03;6.35;;;1.48;;
75620;SDS011;64574;48.506;-2.750;2023-05-10T07:57:29;10.60;;;1.70;;
75620;SDS011;64574;48.506;-2.750;2023-05-10T07:59:55;7.85;;;1.45;;
75620;SDS011;64574;48.506;-2.750;2023-05-10T08:02:21;8.10;;;1.50;;
75620;SDS011;64574;48.506;-2.750;2023-05-10T08:04:46;9.48;;;1.50;;
75620;SDS011;64574;48.506;-2.750;2023-05-10T08:07:12;9.68;;;2.22;;
75620;SDS011;64574;48.506;-2.750;2023-05-10T08:09:38;9.63;;;2.00;;
75620;SDS011;64574;48.506;-2.750;2023-05-10T08:12:03;9.82;;;1.42;;
75620;SDS011;64574;48.506;-2.750;2023-05-10T08:14:29;7.40;;;1.10;;
75620;SDS011;64574;48.506;-2.750;2023-05-10T08:16:55;6.30;;;1.38;;
75620;SDS011;64574;48.506;-2.750;2023-05-10T08:19:21;9.30;;;1.52;;
75620;SDS011;64574;48.506;-2.750;2023-05-10T08:21:47;5.82;;;1.00;;
75620;SDS011;64574;48.506;-2.750;2023-05-10T08:24:13;5.50;;;1.20;;
75620;SDS011;64574;48.506;-2.750;2023-05-10T08:26:38;5.63;;;1.63;;
75620;SDS011;64574;48.506;-2.750;2023-05-10T08:29:04;5.63;;;1.00;;
75620;SDS011;64574;48.506;-2.750;2023-05-10T08:31:30;5.20;;;1.00;;
75620;SDS011;64574;48.506;-2.750;2023-05-10T08:33:56;6.55;;;1.60;;
75620;SDS011;64574;48.506;-2.750;2023-05-10T08:36:23;5.65;;;1.20;;
75620;SDS011;64574;48.506;-2.750;2023-05-10T08:38:52;5.30;;;1.40;;
75620;SDS011;64574;48.506;-2.750;2023-05-10T08:41:22;8.50;;;1.40;;
75620;SDS011;64574;48.506;-2.750;2023-05-10T08:43:54;5.00;;;0.93;;
75620;SDS011;64574;48.506;-2.750;2023-05-10T08:46:21;6.55;;;1.10;;
75620;SDS011;64574;48.506;-2.750;2023-05-10T08:48:48;9.23;;;1.20;;
75620;SDS011;64574;48.506;-2.750;2023-05-10T08:51:18;7.57;;;1.50;;
75620;SDS011;64574;48.506;-2.750;2023-05-10T08:53:46;7.85;;;1.65;;
75620;SDS011;64574;48.506;-2.750;2023-05-10T08:56:12;6.82;;;1.45;;
75620;SDS011;64574;48.506;-2.750;2023-05-10T08:58:38;6.25;;;1.10;;
75620;SDS011;64574;48.506;-2.750;2023-05-10T09:01:04;6.95;;;1.00;;
75620;SDS011;64574;48.506;-2.750;2023-05-10T09:03:31;9.85;;;1.15;;
75620;SDS011;64574;48.506;-2.750;2023-05-10T09:06:00;6.85;;;1.83;;
75620;SDS011;64574;48.506;-2.750;2023-05-10T09:08:25;7.20;;;1.05;;
75620;SDS011;64574;48.506;-2.750;2023-05-10T09:10:52;12.55;;;1.45;;
75620;SDS011;64574;48.506;-2.750;2023-05-10T09:15:45;4.50;;;0.85;;
75620;SDS011;64574;48.506;-2.750;2023-05-10T09:18:12;6.95;;;1.15;;
75620;SDS011;64574;48.506;-2.750;2023-05-10T09:20:38;6.40;;;0.90;;
75620;SDS011;64574;48.506;-2.750;2023-05-10T09:23:03;5.00;;;1.00;;
75620;SDS011;64574;48.506;-2.750;2023-05-10T09:25:29;6.10;;;0.90;;
75620;SDS011;64574;48.506;-2.750;2023-05-10T09:27:58;8.82;;;1.55;;
75620;SDS011;64574;48.506;-2.750;2023-05-10T09:30:27;7.50;;;1.33;;
75620;SDS011;64574;48.506;-2.750;2023-05-10T09:32:53;5.68;;;1.00;;
75620;SDS011;64574;48.506;-2.750;2023-05-10T09:35:21;5.63;;;0.90;;
75620;SDS011;64574;48.506;-2.750;2023-05-10T09:37:51;4.10;;;0.70;;
75620;SDS011;64574;48.506;-2.750;2023-05-10T09:42:57;4.97;;;1.25;;
75620;SDS011;64574;48.506;-2.750;2023-05-10T09:45:28;5.60;;;0.88;;
75620;SDS011;64574;48.506;-2.750;2023-05-10T09:47:57;5.43;;;0.80;;
75620;SDS011;64574;48.506;-2.750;2023-05-10T09:50:24;4.70;;;0.80;;
75620;SDS011;64574;48.506;-2.750;2023-05-10T09:52:54;6.25;;;1.20;;
75620;SDS011;64574;48.506;-2.750;2023-05-10T09:55:46;4.22;;;1.00;;
75620;SDS011;64574;48.506;-2.750;2023-05-10T09:58:11;6.90;;;1.02;;
75620;SDS011;64574;48.506;-2.750;2023-05-10T10:03:05;4.25;;;0.60;;
75620;SDS011;64574;48.506;-2.750;2023-05-10T10:05:32;5.03;;;1.20;;
75620;SDS011;64574;48.506;-2.750;2023-05-10T10:08:00;9.38;;;1.33;;
75620;SDS011;64574;48.506;-2.750;2023-05-10T10:10:29;3.60;;;0.80;;
75620;SDS011;64574;48.506;-2.750;2023-05-10T10:12:57;4.90;;;0.90;;
75620;SDS011;64574;48.506;-2.750;2023-05-10T10:15:23;4.00;;;0.55;;
75620;SDS011;64574;48.506;-2.750;2023-05-10T10:17:50;8.25;;;1.17;;
75620;SDS011;64574;48.506;-2.750;2023-05-10T10:22:43;6.00;;;0.90;;
75620;SDS011;64574;48.506;-2.750;2023-05-10T10:25:10;6.85;;;0.93;;
75620;SDS011;64574;48.506;-2.750;2023-05-10T10:35:58;3.63;;;0.80;;
75620;SDS011;64574;48.506;-2.750;2023-05-10T10:38:25;8.45;;;1.45;;
75620;SDS011;64574;48.506;-2.750;2023-05-10T10:41:10;8.93;;;1.30;;
75620;SDS011;64574;48.506;-2.750;2023-05-10T10:44:20;6.60;;;0.98;;
75620;SDS011;64574;48.506;-2.750;2023-05-10T10:49:50;5.57;;;0.77;;
75620;SDS011;64574;48.506;-2.750;2023-05-10T11:10:23;8.32;;;1.17;;
75620;SDS011;64574;48.506;-2.750;2023-05-10T11:12:53;6.20;;;1.00;;
75620;SDS011;64574;48.506;-2.750;2023-05-10T11:15:38;4.32;;;0.75;;
75620;SDS011;64574;48.506;-2.750;2023-05-10T11:20:51;5.60;;;0.80;;
75620;SDS011;64574;48.506;-2.750;2023-05-10T11:23:20;5.47;;;0.93;;
75620;SDS011;64574;48.506;-2.750;2023-05-10T11:28:13;1.83;;;0.30;;
75620;SDS011;64574;48.506;-2.750;2023-05-10T11:30:39;1.33;;;0.40;;
75620;SDS011;64574;48.506;-2.750;2023-05-10T11:33:06;0.75;;;0.28;;
75620;SDS011;64574;48.506;-2.750;2023-05-10T11:35:39;2.55;;;0.40;;
75620;SDS011;64574;48.506;-2.750;2023-05-10T11:38:12;1.67;;;0.38;;
75620;SDS011;64574;48.506;-2.750;2023-05-10T11:40:40;2.92;;;0.60;;
75620;SDS011;64574;48.506;-2.750;2023-05-10T11:43:06;4.15;;;0.70;;
75620;SDS011;64574;48.506;-2.750;2023-05-10T11:45:35;2.15;;;0.65;;
75620;SDS011;64574;48.506;-2.750;2023-05-10T11:48:02;7.35;;;0.65;;
75620;SDS011;64574;48.506;-2.750;2023-05-10T11:50:28;4.78;;;0.73;;
75620;SDS011;64574;48.506;-2.750;2023-05-10T11:52:54;3.05;;;0.60;;
75620;SDS011;64574;48.506;-2.750;2023-05-10T11:55:21;5.97;;;0.55;;
75620;SDS011;64574;48.506;-2.750;2023-05-10T11:57:52;7.15;;;1.27;;
75620;SDS011;64574;48.506;-2.750;2023-05-10T12:00:19;5.53;;;0.70;;
75620;SDS011;64574;48.506;-2.750;2023-05-10T12:02:45;5.25;;;0.80;;
75620;SDS011;64574;48.506;-2.750;2023-05-10T12:05:11;5.00;;;0.82;;
75620;SDS011;64574;48.506;-2.750;2023-05-10T12:07:37;5.32;;;0.90;;
75620;SDS011;64574;48.506;-2.750;2023-05-10T12:10:07;3.80;;;0.80;;
75620;SDS011;64574;48.506;-2.750;2023-05-10T12:15:19;6.88;;;0.90;;
75620;SDS011;64574;48.506;-2.750;2023-05-10T12:17:49;4.05;;;1.08;;
75620;SDS011;64574;48.506;-2.750;2023-05-10T12:22:54;4.85;;;1.38;;
75620;SDS011;64574;48.506;-2.750;2023-05-10T12:25:23;5.65;;;1.23;;
75620;SDS011;64574;48.506;-2.750;2023-05-10T12:27:55;4.20;;;0.93;;
75620;SDS011;64574;48.506;-2.750;2023-05-10T12:30:26;2.58;;;0.80;;
75620;SDS011;64574;48.506;-2.750;2023-05-10T12:32:53;6.20;;;0.82;;
75620;SDS011;64574;48.506;-2.750;2023-05-10T12:35:24;9.68;;;1.20;;
75620;SDS011;64574;48.506;-2.750;2023-05-10T12:37:50;5.63;;;1.10;;
75620;SDS011;64574;48.506;-2.750;2023-05-10T12:40:17;7.32;;;0.95;;
75620;SDS011;64574;48.506;-2.750;2023-05-10T12:42:43;4.70;;;0.80;;
75620;SDS011;64574;48.506;-2.750;2023-05-10T12:45:11;6.20;;;1.00;;
75620;SDS011;64574;48.506;-2.750;2023-05-10T12:47:37;4.18;;;0.70;;
75620;SDS011;64574;48.506;-2.750;2023-05-10T12:50:03;6.35;;;1.00;;
75620;SDS011;64574;48.506;-2.750;2023-05-10T12:52:30;4.18;;;0.55;;
75620;SDS011;64574;48.506;-2.750;2023-05-10T12:57:22;4.43;;;0.75;;
75620;SDS011;64574;48.506;-2.750;2023-05-10T12:59:48;4.00;;;0.70;;
75620;SDS011;64574;48.506;-2.750;2023-05-10T13:02:14;5.93;;;1.05;;
75620;SDS011;64574;48.506;-2.750;2023-05-10T13:04:40;3.53;;;0.57;;
75620;SDS011;64574;48.506;-2.750;2023-05-10T13:07:06;6.00;;;0.75;;
75620;SDS011;64574;48.506;-2.750;2023-05-10T13:09:32;5.57;;;1.08;;
75620;SDS011;64574;48.506;-2.750;2023-05-10T13:11:58;4.63;;;1.58;;
75620;SDS011;64574;48.506;-2.750;2023-05-10T13:14:24;4.20;;;0.70;;
75620;SDS011;64574;48.506;-2.750;2023-05-10T13:16:50;6.03;;;0.75;;
75620;SDS011;64574;48.506;-2.750;2023-05-10T13:19:16;6.45;;;0.80;;
75620;SDS011;64574;48.506;-2.750;2023-05-10T13:21:42;4.45;;;0.80;;
75620;SDS011;64574;48.506;-2.750;2023-05-10T13:26:35;3.97;;;0.80;;
75620;SDS011;64574;48.506;-2.750;2023-05-10T13:29:02;5.43;;;1.45;;
75620;SDS011;64574;48.506;-2.750;2023-05-10T13:31:28;3.60;;;0.60;;
75620;SDS011;64574;48.506;-2.750;2023-05-10T13:33:54;4.97;;;0.75;;
75620;SDS011;64574;48.506;-2.750;2023-05-10T13:36:19;4.97;;;0.60;;
75620;SDS011;64574;48.506;-2.750;2023-05-10T13:38:45;4.35;;;1.10;;
75620;SDS011;64574;48.506;-2.750;2023-05-10T13:41:11;4.53;;;0.60;;
75620;SDS011;64574;48.506;-2.750;2023-05-10T13:43:36;7.57;;;1.00;;
75620;SDS011;64574;48.506;-2.750;2023-05-10T13:46:02;5.75;;;0.95;;
75620;SDS011;64574;48.506;-2.750;2023-05-10T13:48:28;3.88;;;0.82;;
75620;SDS011;64574;48.506;-2.750;2023-05-10T13:50:54;5.65;;;1.10;;
75620;SDS011;64574;48.506;-2.750;2023-05-10T13:53:20;4.15;;;0.68;;
75620;SDS011;64574;48.506;-2.750;2023-05-10T13:55:46;2.78;;;0.60;;
75620;SDS011;64574;48.506;-2.750;2023-05-10T13:58:12;6.43;;;0.90;;
75620;SDS011;64574;48.506;-2.750;2023-05-10T14:00:38;4.50;;;1.08;;
75620;SDS011;64574;48.506;-2.750;2023-05-10T14:03:04;4.50;;;1.02;;
75620;SDS011;64574;48.506;-2.750;2023-05-10T14:05:31;5.63;;;0.90;;
75620;SDS011;64574;48.506;-2.750;2023-05-10T14:07:57;4.18;;;0.75;;
75620;SDS011;64574;48.506;-2.750;2023-05-10T14:10:23;6.38;;;0.82;;
75620;SDS011;64574;48.506;-2.750;2023-05-10T14:12:49;4.07;;;0.93;;
75620;SDS011;64574;48.506;-2.750;2023-05-10T14:15:15;4.93;;;1.05;;
75620;SDS011;64574;48.506;-2.750;2023-05-10T14:17:40;4.88;;;1.20;;
75620;SDS011;64574;48.506;-2.750;2023-05-10T14:20:06;4.30;;;0.60;;
75620;SDS011;64574;48.506;-2.750;2023-05-10T14:22:32;6.18;;;0.93;;
75620;SDS011;64574;48.506;-2.750;2023-05-10T14:24:58;3.45;;;0.60;;
75620;SDS011;64574;48.506;-2.750;2023-05-10T14:27:23;5.78;;;1.10;;
75620;SDS011;64574;48.506;-2.750;2023-05-10T14:29:49;5.45;;;0.90;;
75620;SDS011;64574;48.506;-2.750;2023-05-10T14:32:15;3.88;;;0.57;;
75620;SDS011;64574;48.506;-2.750;2023-05-10T14:34:40;6.28;;;0.70;;
75620;SDS011;64574;48.506;-2.750;2023-05-10T14:37:06;3.20;;;0.70;;
75620;SDS011;64574;48.506;-2.750;2023-05-10T14:39:31;3.38;;;0.68;;
75620;SDS011;64574;48.506;-2.750;2023-05-10T14:41:58;4.68;;;0.65;;
75620;SDS011;64574;48.506;-2.750;2023-05-10T14:44:23;4.45;;;0.80;;
75620;SDS011;64574;48.506;-2.750;2023-05-10T14:46:50;2.95;;;0.70;;
75620;SDS011;64574;48.506;-2.750;2023-05-10T14:49:15;2.05;;;0.30;;
75620;SDS011;64574;48.506;-2.750;2023-05-10T14:51:41;3.72;;;0.63;;
75620;SDS011;64574;48.506;-2.750;2023-05-10T14:54:06;4.60;;;0.50;;
75620;SDS011;64574;48.506;-2.750;2023-05-10T14:56:32;2.28;;;0.50;;
75620;SDS011;64574;48.506;-2.750;2023-05-10T14:58:58;3.67;;;0.57;;
75620;SDS011;64574;48.506;-2.750;2023-05-10T15:01:25;2.83;;;0.50;;
75620;SDS011;64574;48.506;-2.750;2023-05-10T15:03:50;2.88;;;0.70;;
75620;SDS011;64574;48.506;-2.750;2023-05-10T15:06:16;5.68;;;0.60;;
75620;SDS011;64574;48.506;-2.750;2023-05-10T15:08:42;2.35;;;0.60;;
75620;SDS011;64574;48.506;-2.750;2023-05-10T15:11:08;3.13;;;0.45;;
75620;SDS011;64574;48.506;-2.750;2023-05-10T15:13:33;3.10;;;0.60;;
75620;SDS011;64574;48.506;-2.750;2023-05-10T15:15:59;2.05;;;0.60;;
75620;SDS011;64574;48.506;-2.750;2023-05-10T15:18:24;2.78;;;0.85;;
75620;SDS011;64574;48.506;-2.750;2023-05-10T15:20:50;1.98;;;0.63;;
75620;SDS011;64574;48.506;-2.750;2023-05-10T15:23:16;6.55;;;0.70;;
75620;SDS011;64574;48.506;-2.750;2023-05-10T15:25:42;3.70;;;0.57;;
75620;SDS011;64574;48.506;-2.750;2023-05-10T15:28:07;2.22;;;0.40;;
75620;SDS011;64574;48.506;-2.750;2023-05-10T15:30:33;2.17;;;0.50;;
75620;SDS011;64574;48.506;-2.750;2023-05-10T15:32:58;5.47;;;0.80;;
75620;SDS011;64574;48.506;-2.750;2023-05-10T15:35:25;2.40;;;0.50;;
75620;SDS011;64574;48.506;-2.750;2023-05-10T15:37:51;4.53;;;0.77;;
75620;SDS011;64574;48.506;-2.750;2023-05-10T15:40:17;7.38;;;1.00;;
75620;SDS011;64574;48.506;-2.750;2023-05-10T15:42:43;4.47;;;0.70;;
75620;SDS011;64574;48.506;-2.750;2023-05-10T15:45:09;3.40;;;0.70;;
75620;SDS011;64574;48.506;-2.750;2023-05-10T15:47:35;3.67;;;0.65;;
75620;SDS011;64574;48.506;-2.750;2023-05-10T15:50:01;6.88;;;0.85;;